Friday, November 17, 2017, 4:23 PM EST
Back to Local

KBGR, Bangor Int'l Airport

Location: Bangor, ME, United States Lat: 44.8
Local Time: 4:23 PM EST (21:23 GMT) Lon: -68.817
Time Zone: US/Eastern Elev: 193 ft

Show me the last for .
Show Decoded

2017-11-17 15:53 METAR KBGR 172053Z 31016G22KT 10SM SCT031 00/M06 A2978 RMK AO2 PK WND 32030/1958
                 SLP085 T00001061 53026 =
2017-11-17 15:43 METAR KBGR 172043Z 31014G22KT 10SM SCT031 00/M06 A2977 RMK AO2 PK WND 32030/1958
                 T00001061 =
2017-11-17 14:53 METAR KBGR 171953Z 31017G28KT 10SM BKN027 01/M06 A2974 RMK AO2 PK WND 32028/1948
                 SLP073 T00061056 =
2017-11-17 13:53 METAR KBGR 171853Z 31017G25KT 10SM OVC026 02/M04 A2972 RMK AO2 PK WND 29027/1758
                 SLP065 BINOVC T00171044 =
2017-11-17 12:53 METAR KBGR 171753Z 31014G24KT 10SM OVC026 02/M03 A2970 RMK AO2 SLP058 P0000
                 60000 T00221033 10050 20022 53016 =
2017-11-17 11:53 METAR KBGR 171653Z 29013G26KT 10SM OVC025 03/M02 A2967 RMK AO2 PK WND 30031/1615
                 RAB17E31 SLP049 P0000 T00281022 =
2017-11-17 10:53 METAR KBGR 171553Z 29012G21KT 10SM OVC027 04/M01 A2966 RMK AO2 PK WND 32033/1535
                 SLP045 T00391011 =
2017-11-17 09:53 METAR KBGR 171453Z 30016G28KT 10SM SCT023 BKN028 BKN060 05/00 A2965 RMK AO2 PK
                 WND 30028/1445 SLP041 P0000 60000 T00500000 51016 =
2017-11-17 08:53 METAR KBGR 171353Z 30011G17KT 10SM FEW016 BKN022 OVC039 04/02 A2963 RMK AO2
                 RAB35E44 SLP034 P0000 T00440022 =
2017-11-17 08:48 METAR KBGR 171348Z 29011G18KT 10SM BKN020 BKN025 OVC039 04/02 A2963 RMK AO2
                 RAB35E44 P0000 =
2017-11-17 07:53 METAR KBGR 171253Z 30010G15KT 10SM SCT027 BKN050 BKN120 04/02 A2960 RMK AO2
                 SLP025 T00440022 =
2017-11-17 06:53 METAR KBGR 171153Z 27009KT 10SM SCT027 BKN050 BKN120 03/01 A2959 RMK AO2 SLP021
                 60003 70057 I6000 T00280011 10033 20022 53016 =
2017-11-17 06:44 METAR KBGR 171144Z 26007KT 10SM SCT027 BKN050 BKN120 02/01 A2958 RMK AO2
                 T00220011 =
2017-11-17 06:16 METAR KBGR 171116Z 27006KT 10SM BKN029 02/01 A2957 RMK AO2 T00220011 =
2017-11-17 05:53 METAR KBGR 171053Z 27007KT 10SM FEW023 02/01 A2957 RMK AO2 SLP014 T00220011 =
2017-11-17 05:32 METAR KBGR 171032Z 27004KT 10SM SCT023 02/02 A2956 RMK AO2 T00220017 =
2017-11-17 04:53 METAR KBGR 170953Z 27007KT 10SM BKN023 BKN060 OVC080 03/02 A2955 RMK AO2 SLP009
                 T00330022 =
2017-11-17 03:53 METAR KBGR 170853Z 27008KT 10SM OVC060 03/02 A2954 RMK AO2 RAB0755E50 SLP004
                 P0000 60003 I3000 T00330017 55003 =
2017-11-17 02:53 METAR KBGR 170753Z 25007KT 10SM SCT032 OVC049 03/02 A2954 RMK AO2 RAE23 SLP003
                 P0000 I1000 T00280017 =
2017-11-17 02:29 METAR KBGR 170729Z 26005KT 10SM FEW031 OVC048 03/02 A2954 RMK AO2 RAE23 P0000
                 I1000 T00280017 =
2017-11-17 01:53 METAR KBGR 170653Z 27005KT 6SM -RA BR BKN027 OVC035 02/02 A2954 RMK AO2 SLP005
                 P0003 T00220017 =
2017-11-17 00:53 METAR KBGR 170553Z 30007KT 5SM -RA BR FEW015 OVC029 02/01 A2955 RMK AO2 SLP007
                 P0001 60045 T00220011 10039 20022 58025 =
2017-11-17 00:28 METAR KBGR 170528Z 31007KT 5SM -RA BR BKN004 OVC012 02/01 A2956 RMK AO2 P0000
                 T00220011 =
2017-11-17 00:06 METAR KBGR 170506Z 28005KT 5SM -RA BR FEW004 BKN015 OVC040 02/02 A2957 RMK AO2
                 P0000 T00220017 =
2017-11-16 23:53 METAR KBGR 170453Z 29005KT 5SM -RA BR BKN004 OVC011 02/02 A2958 RMK AO2 SLP016
                 P0003 T00220017 400721011 =
2017-11-16 22:53 METAR KBGR 170353Z 31005KT 8SM -RA BKN004 OVC011 03/02 A2960 RMK AO2 SLP026
                 P0003 T00280017 =
2017-11-16 22:37 METAR KBGR 170337Z 32007KT 8SM -RA BKN005 BKN011 OVC037 03/02 A2960 RMK AO2
                 P0002 T00280017 =
2017-11-16 22:29 METAR KBGR 170329Z 32006KT 9SM -RA BKN004 BKN011 OVC042 03/02 A2961 RMK AO2
                 P0002 T00280022 =
2017-11-16 21:53 METAR KBGR 170253Z 01005KT 7SM -RA FEW009 OVC043 03/02 A2962 RMK AO2 SLP033
                 P0011 60038 T00280022 58032 =
2017-11-16 20:53 METAR KBGR 170153Z 04003KT 5SM -RA BR OVC031 03/02 A2966 RMK AO2 SLP047 P0016
                 T00330022 =
2017-11-16 20:36 METAR KBGR 170136Z 06004KT 5SM -RA BR OVC030 03/02 A2967 RMK AO2 P0012 T00330022
                 =
2017-11-16 19:53 METAR KBGR 170053Z 06004KT 5SM RA BR SCT021 OVC028 03/02 A2970 RMK AO2 SLP058
                 P0011 T00330022 =
2017-11-16 18:53 METAR KBGR 162353Z 36007KT 7SM -RA OVC019 04/03 A2972 RMK AO2 SLP066 P0008 60009
                 T00390028 10072 20039 56029 =
2017-11-16 17:53 METAR KBGR 162253Z 35005KT 10SM -RA FEW016 BKN027 OVC048 04/03 A2975 RMK AO2
                 SLP076 P0001 T00440028 =
2017-11-16 16:53 METAR KBGR 162153Z 01005KT 10SM -RA FEW030 OVC048 06/03 A2977 RMK AO2 RAB17
                 SLP084 P0000 T00560028 =

Support USWX by starting your Amazon purchase here.